sensor_id;sensor_type;location;lat;lon;timestamp;temperature;humidity
19947;DHT22;10135;50.702;7.276;2024-01-25T06:01:20;10.70;63.60
19947;DHT22;10135;50.702;7.276;2024-01-25T06:03:20;10.60;63.20
19947;DHT22;10135;50.702;7.276;2024-01-25T06:05:21;10.60;63.30
19947;DHT22;10135;50.702;7.276;2024-01-25T06:07:22;10.60;63.50
19947;DHT22;10135;50.702;7.276;2024-01-25T06:09:23;10.60;63.50
19947;DHT22;10135;50.702;7.276;2024-01-25T06:11:27;10.60;63.50
19947;DHT22;10135;50.702;7.276;2024-01-25T06:13:28;10.50;63.50
19947;DHT22;10135;50.702;7.276;2024-01-25T06:15:29;10.50;63.60
19947;DHT22;10135;50.702;7.276;2024-01-25T06:17:30;10.50;63.60
19947;DHT22;10135;50.702;7.276;2024-01-25T06:19:31;10.50;63.70
19947;DHT22;10135;50.702;7.276;2024-01-25T06:21:33;10.50;63.70
19947;DHT22;10135;50.702;7.276;2024-01-25T06:23:35;10.50;63.70
19947;DHT22;10135;50.702;7.276;2024-01-25T06:25:36;10.50;63.70
19947;DHT22;10135;50.702;7.276;2024-01-25T06:27:37;10.40;63.80
19947;DHT22;10135;50.702;7.276;2024-01-25T06:29:38;10.50;63.80
19947;DHT22;10135;50.702;7.276;2024-01-25T06:31:42;10.40;63.80
19947;DHT22;10135;50.702;7.276;2024-01-25T06:33:44;10.40;63.90
19947;DHT22;10135;50.702;7.276;2024-01-25T06:35:47;10.40;63.80
19947;DHT22;10135;50.702;7.276;2024-01-25T06:37:48;10.40;63.90
19947;DHT22;10135;50.702;7.276;2024-01-25T06:39:48;10.40;63.80
19947;DHT22;10135;50.702;7.276;2024-01-25T06:41:49;10.40;63.90
19947;DHT22;10135;50.702;7.276;2024-01-25T06:43:50;10.40;64.00
19947;DHT22;10135;50.702;7.276;2024-01-25T06:45:50;10.40;63.90
19947;DHT22;10135;50.702;7.276;2024-01-25T06:47:51;10.40;64.00
19947;DHT22;10135;50.702;7.276;2024-01-25T06:49:52;10.30;64.70
19947;DHT22;10135;50.702;7.276;2024-01-25T06:51:52;10.30;64.00
19947;DHT22;10135;50.702;7.276;2024-01-25T06:53:53;10.30;64.00
19947;DHT22;10135;50.702;7.276;2024-01-25T06:55:54;10.30;64.00
19947;DHT22;10135;50.702;7.276;2024-01-25T06:57:54;10.30;64.00
19947;DHT22;10135;50.702;7.276;2024-01-25T06:59:55;10.30;64.00
19947;DHT22;10135;50.702;7.276;2024-01-25T07:01:56;10.30;64.80
19947;DHT22;10135;50.702;7.276;2024-01-25T07:03:56;10.30;64.00
19947;DHT22;10135;50.702;7.276;2024-01-25T07:05:57;10.30;64.10
19947;DHT22;10135;50.702;7.276;2024-01-25T07:07:58;10.20;64.10
19947;DHT22;10135;50.702;7.276;2024-01-25T07:09:58;10.30;64.20
19947;DHT22;10135;50.702;7.276;2024-01-25T07:11:59;10.20;64.20
19947;DHT22;10135;50.702;7.276;2024-01-25T07:13:59;10.20;64.10
19947;DHT22;10135;50.702;7.276;2024-01-25T07:16:00;10.20;64.10
19947;DHT22;10135;50.702;7.276;2024-01-25T07:18:01;10.20;64.30
19947;DHT22;10135;50.702;7.276;2024-01-25T07:20:02;10.20;64.20
19947;DHT22;10135;50.702;7.276;2024-01-25T07:22:03;10.20;64.30
19947;DHT22;10135;50.702;7.276;2024-01-25T07:24:04;10.20;64.30
19947;DHT22;10135;50.702;7.276;2024-01-25T07:26:05;10.20;64.30
19947;DHT22;10135;50.702;7.276;2024-01-25T07:28:06;10.10;64.30
19947;DHT22;10135;50.702;7.276;2024-01-25T07:30:07;10.10;64.30
19947;DHT22;10135;50.702;7.276;2024-01-25T07:32:09;10.10;64.40
19947;DHT22;10135;50.702;7.276;2024-01-25T07:34:09;10.10;64.50
19947;DHT22;10135;50.702;7.276;2024-01-25T07:36:10;10.10;64.50
19947;DHT22;10135;50.702;7.276;2024-01-25T07:38:11;10.20;64.50
19947;DHT22;10135;50.702;7.276;2024-01-25T07:40:12;10.20;64.50
19947;DHT22;10135;50.702;7.276;2024-01-25T07:42:13;10.10;64.40
19947;DHT22;10135;50.702;7.276;2024-01-25T07:44:13;10.20;64.50
19947;DHT22;10135;50.702;7.276;2024-01-25T07:46:14;10.20;64.50
19947;DHT22;10135;50.702;7.276;2024-01-25T07:48:15;10.20;64.60
19947;DHT22;10135;50.702;7.276;2024-01-25T07:50:15;10.20;65.30
19947;DHT22;10135;50.702;7.276;2024-01-25T07:52:17;10.20;64.70
19947;DHT22;10135;50.702;7.276;2024-01-25T07:54:18;10.20;64.50
19947;DHT22;10135;50.702;7.276;2024-01-25T07:56:18;10.30;64.60
19947;DHT22;10135;50.702;7.276;2024-01-25T07:58:20;10.20;64.50
19947;DHT22;10135;50.702;7.276;2024-01-25T08:00:20;10.30;64.60
19947;DHT22;10135;50.702;7.276;2024-01-25T08:02:21;10.30;64.60
19947;DHT22;10135;50.702;7.276;2024-01-25T08:04:22;10.30;64.70
19947;DHT22;10135;50.702;7.276;2024-01-25T08:06:22;10.30;64.60
19947;DHT22;10135;50.702;7.276;2024-01-25T08:08:23;10.40;64.70
19947;DHT22;10135;50.702;7.276;2024-01-25T08:10:23;10.40;65.00
19947;DHT22;10135;50.702;7.276;2024-01-25T08:12:24;10.50;65.20
19947;DHT22;10135;50.702;7.276;2024-01-25T08:14:25;10.60;65.40
19947;DHT22;10135;50.702;7.276;2024-01-25T08:16:26;10.80;65.80
19947;DHT22;10135;50.702;7.276;2024-01-25T08:18:27;10.90;65.80
19947;DHT22;10135;50.702;7.276;2024-01-25T08:20:30;11.10;65.80
19947;DHT22;10135;50.702;7.276;2024-01-25T08:22:31;11.30;65.80
19947;DHT22;10135;50.702;7.276;2024-01-25T08:24:32;11.50;65.60
19947;DHT22;10135;50.702;7.276;2024-01-25T08:26:33;11.70;65.60
19947;DHT22;10135;50.702;7.276;2024-01-25T08:28:35;11.90;65.40
19947;DHT22;10135;50.702;7.276;2024-01-25T08:30:36;12.10;65.30
19947;DHT22;10135;50.702;7.276;2024-01-25T08:32:37;12.30;65.20
19947;DHT22;10135;50.702;7.276;2024-01-25T08:34:37;12.50;65.20
19947;DHT22;10135;50.702;7.276;2024-01-25T08:36:38;12.70;65.20
19947;DHT22;10135;50.702;7.276;2024-01-25T08:38:39;13.00;65.00
19947;DHT22;10135;50.702;7.276;2024-01-25T08:40:39;13.20;64.90
19947;DHT22;10135;50.702;7.276;2024-01-25T08:42:40;13.50;65.00
19947;DHT22;10135;50.702;7.276;2024-01-25T08:44:41;13.70;65.50
19947;DHT22;10135;50.702;7.276;2024-01-25T08:46:49;14.00;64.50
19947;DHT22;10135;50.702;7.276;2024-01-25T08:48:49;14.30;64.10
19947;DHT22;10135;50.702;7.276;2024-01-25T08:50:50;14.40;63.80
19947;DHT22;10135;50.702;7.276;2024-01-25T08:52:53;14.60;63.50
19947;DHT22;10135;50.702;7.276;2024-01-25T08:54:54;14.70;63.00
19947;DHT22;10135;50.702;7.276;2024-01-25T08:56:55;14.80;62.50
19947;DHT22;10135;50.702;7.276;2024-01-25T08:58:55;14.80;62.00
19947;DHT22;10135;50.702;7.276;2024-01-25T09:00:56;14.80;61.90
19947;DHT22;10135;50.702;7.276;2024-01-25T09:02:57;14.80;61.80
19947;DHT22;10135;50.702;7.276;2024-01-25T09:04:57;14.80;61.90
19947;DHT22;10135;50.702;7.276;2024-01-25T09:06:59;14.90;61.80
19947;DHT22;10135;50.702;7.276;2024-01-25T09:09:00;14.90;61.60
19947;DHT22;10135;50.702;7.276;2024-01-25T09:11:00;14.90;61.50
19947;DHT22;10135;50.702;7.276;2024-01-25T09:13:01;15.00;61.60
19947;DHT22;10135;50.702;7.276;2024-01-25T09:15:02;15.00;61.60
19947;DHT22;10135;50.702;7.276;2024-01-25T09:17:03;15.00;61.50
19947;DHT22;10135;50.702;7.276;2024-01-25T09:19:04;15.00;61.30
19947;DHT22;10135;50.702;7.276;2024-01-25T09:21:05;15.10;61.20
19947;DHT22;10135;50.702;7.276;2024-01-25T09:23:06;15.00;60.90
19947;DHT22;10135;50.702;7.276;2024-01-25T09:25:07;15.00;60.60
19947;DHT22;10135;50.702;7.276;2024-01-25T09:27:08;15.00;61.30
19947;DHT22;10135;50.702;7.276;2024-01-25T09:29:09;14.90;60.40
19947;DHT22;10135;50.702;7.276;2024-01-25T09:31:09;14.90;60.40
19947;DHT22;10135;50.702;7.276;2024-01-25T09:33:10;14.80;60.20
19947;DHT22;10135;50.702;7.276;2024-01-25T09:35:11;14.70;60.10
19947;DHT22;10135;50.702;7.276;2024-01-25T09:37:11;14.60;60.00
19947;DHT22;10135;50.702;7.276;2024-01-25T09:39:12;14.60;60.10
19947;DHT22;10135;50.702;7.276;2024-01-25T09:41:14;14.50;60.10
19947;DHT22;10135;50.702;7.276;2024-01-25T09:43:15;14.40;60.10
19947;DHT22;10135;50.702;7.276;2024-01-25T09:45:19;14.30;60.10
19947;DHT22;10135;50.702;7.276;2024-01-25T09:47:20;14.20;60.00
19947;DHT22;10135;50.702;7.276;2024-01-25T09:49:21;14.20;60.20
19947;DHT22;10135;50.702;7.276;2024-01-25T09:51:22;14.10;60.20
19947;DHT22;10135;50.702;7.276;2024-01-25T09:53:24;14.00;60.20
19947;DHT22;10135;50.702;7.276;2024-01-25T09:55:25;14.00;60.40
19947;DHT22;10135;50.702;7.276;2024-01-25T09:57:28;13.90;60.30
19947;DHT22;10135;50.702;7.276;2024-01-25T09:59:30;13.90;60.20
19947;DHT22;10135;50.702;7.276;2024-01-25T10:01:31;13.90;60.30
19947;DHT22;10135;50.702;7.276;2024-01-25T10:03:32;13.80;60.20
19947;DHT22;10135;50.702;7.276;2024-01-25T10:05:32;13.80;60.20
19947;DHT22;10135;50.702;7.276;2024-01-25T10:07:41;13.70;60.20
19947;DHT22;10135;50.702;7.276;2024-01-25T10:09:42;13.70;60.00
19947;DHT22;10135;50.702;7.276;2024-01-25T10:11:43;13.60;60.30
19947;DHT22;10135;50.702;7.276;2024-01-25T10:13:45;13.60;60.30
19947;DHT22;10135;50.702;7.276;2024-01-25T10:15:47;13.60;60.40
19947;DHT22;10135;50.702;7.276;2024-01-25T10:17:49;13.50;60.30
19947;DHT22;10135;50.702;7.276;2024-01-25T10:19:49;13.50;60.40
19947;DHT22;10135;50.702;7.276;2024-01-25T10:21:50;13.50;60.50
19947;DHT22;10135;50.702;7.276;2024-01-25T10:23:51;13.50;60.50
19947;DHT22;10135;50.702;7.276;2024-01-25T10:25:53;13.50;60.50
19947;DHT22;10135;50.702;7.276;2024-01-25T10:27:56;13.50;60.50
19947;DHT22;10135;50.702;7.276;2024-01-25T10:29:56;13.50;60.40
19947;DHT22;10135;50.702;7.276;2024-01-25T10:31:57;13.50;60.30
19947;DHT22;10135;50.702;7.276;2024-01-25T10:33:59;13.40;60.30
19947;DHT22;10135;50.702;7.276;2024-01-25T10:36:01;13.50;60.40
19947;DHT22;10135;50.702;7.276;2024-01-25T10:38:04;13.50;60.40
19947;DHT22;10135;50.702;7.276;2024-01-25T10:40:06;13.40;60.40
19947;DHT22;10135;50.702;7.276;2024-01-25T10:42:10;13.50;60.50
19947;DHT22;10135;50.702;7.276;2024-01-25T10:44:11;13.50;60.50
19947;DHT22;10135;50.702;7.276;2024-01-25T10:46:11;13.50;60.40
19947;DHT22;10135;50.702;7.276;2024-01-25T10:48:12;13.50;60.40
19947;DHT22;10135;50.702;7.276;2024-01-25T10:50:13;13.50;60.40
19947;DHT22;10135;50.702;7.276;2024-01-25T10:52:15;13.60;60.40
19947;DHT22;10135;50.702;7.276;2024-01-25T10:54:16;13.60;60.50
19947;DHT22;10135;50.702;7.276;2024-01-25T10:56:17;13.60;60.30
19947;DHT22;10135;50.702;7.276;2024-01-25T10:58:18;13.70;60.30
19947;DHT22;10135;50.702;7.276;2024-01-25T11:00:21;13.70;60.30
19947;DHT22;10135;50.702;7.276;2024-01-25T11:02:24;13.70;60.30
19947;DHT22;10135;50.702;7.276;2024-01-25T11:04:24;13.70;60.10
19947;DHT22;10135;50.702;7.276;2024-01-25T11:06:27;13.80;60.20
19947;DHT22;10135;50.702;7.276;2024-01-25T11:08:28;13.70;60.10
19947;DHT22;10135;50.702;7.276;2024-01-25T11:10:34;13.80;60.10
19947;DHT22;10135;50.702;7.276;2024-01-25T11:12:48;13.80;59.70
19947;DHT22;10135;50.702;7.276;2024-01-25T11:14:55;13.80;59.60
19947;DHT22;10135;50.702;7.276;2024-01-25T11:16:56;13.80;59.70
19947;DHT22;10135;50.702;7.276;2024-01-25T11:18:58;13.80;59.80
19947;DHT22;10135;50.702;7.276;2024-01-25T11:21:05;13.80;59.80
19947;DHT22;10135;50.702;7.276;2024-01-25T11:23:06;13.80;59.80
19947;DHT22;10135;50.702;7.276;2024-01-25T11:25:22;13.80;59.70
19947;DHT22;10135;50.702;7.276;2024-01-25T11:27:22;13.80;59.30
19947;DHT22;10135;50.702;7.276;2024-01-25T11:29:23;13.80;59.70
19947;DHT22;10135;50.702;7.276;2024-01-25T11:31:24;13.80;59.60
19947;DHT22;10135;50.702;7.276;2024-01-25T11:33:25;13.80;59.60
19947;DHT22;10135;50.702;7.276;2024-01-25T11:35:26;13.90;59.70
19947;DHT22;10135;50.702;7.276;2024-01-25T11:37:27;13.90;59.70
19947;DHT22;10135;50.702;7.276;2024-01-25T11:39:28;13.90;59.60
19947;DHT22;10135;50.702;7.276;2024-01-25T11:41:30;14.00;59.60
19947;DHT22;10135;50.702;7.276;2024-01-25T11:43:31;14.00;59.50
19947;DHT22;10135;50.702;7.276;2024-01-25T11:45:33;14.00;59.50
19947;DHT22;10135;50.702;7.276;2024-01-25T11:47:34;14.00;59.30
19947;DHT22;10135;50.702;7.276;2024-01-25T11:49:35;14.00;59.30
19947;DHT22;10135;50.702;7.276;2024-01-25T11:51:36;14.00;59.20
19947;DHT22;10135;50.702;7.276;2024-01-25T11:53:37;14.10;59.30
19947;DHT22;10135;50.702;7.276;2024-01-25T11:55:38;14.10;59.30
19947;DHT22;10135;50.702;7.276;2024-01-25T11:57:40;14.10;59.20
19947;DHT22;10135;50.702;7.276;2024-01-25T11:59:41;14.10;59.20
19947;DHT22;10135;50.702;7.276;2024-01-25T12:01:45;14.20;59.10
19947;DHT22;10135;50.702;7.276;2024-01-25T12:03:46;14.20;59.00
19947;DHT22;10135;50.702;7.276;2024-01-25T12:05:47;14.30;59.00
19947;DHT22;10135;50.702;7.276;2024-01-25T12:07:48;14.30;59.00
19947;DHT22;10135;50.702;7.276;2024-01-25T12:10:17;14.30;58.90
19947;DHT22;10135;50.702;7.276;2024-01-25T12:12:18;14.40;58.30
19947;DHT22;10135;50.702;7.276;2024-01-25T12:14:19;14.40;58.90
19947;DHT22;10135;50.702;7.276;2024-01-25T12:16:20;14.40;58.80
19947;DHT22;10135;50.702;7.276;2024-01-25T12:18:21;14.50;58.80
19947;DHT22;10135;50.702;7.276;2024-01-25T12:20:22;14.50;58.80
19947;DHT22;10135;50.702;7.276;2024-01-25T12:22:24;14.60;58.70
19947;DHT22;10135;50.702;7.276;2024-01-25T12:24:27;14.60;59.20
19947;DHT22;10135;50.702;7.276;2024-01-25T12:26:28;14.60;58.60
19947;DHT22;10135;50.702;7.276;2024-01-25T12:28:30;14.70;58.50
19947;DHT22;10135;50.702;7.276;2024-01-25T12:30:32;14.70;58.40
19947;DHT22;10135;50.702;7.276;2024-01-25T12:32:33;14.70;58.30
19947;DHT22;10135;50.702;7.276;2024-01-25T12:34:34;14.70;58.20
19947;DHT22;10135;50.702;7.276;2024-01-25T12:36:34;14.70;58.10
19947;DHT22;10135;50.702;7.276;2024-01-25T12:38:35;14.70;58.70
19947;DHT22;10135;50.702;7.276;2024-01-25T12:40:36;14.70;58.10
19947;DHT22;10135;50.702;7.276;2024-01-25T12:42:36;14.70;58.00
19947;DHT22;10135;50.702;7.276;2024-01-25T12:44:37;14.70;57.90
19947;DHT22;10135;50.702;7.276;2024-01-25T12:46:37;14.70;57.90
19947;DHT22;10135;50.702;7.276;2024-01-25T12:48:38;14.60;57.80
19947;DHT22;10135;50.702;7.276;2024-01-25T12:50:39;14.60;57.80
19947;DHT22;10135;50.702;7.276;2024-01-25T12:52:39;14.60;57.80
19947;DHT22;10135;50.702;7.276;2024-01-25T12:54:40;14.60;57.80
19947;DHT22;10135;50.702;7.276;2024-01-25T12:56:41;14.60;57.80
19947;DHT22;10135;50.702;7.276;2024-01-25T12:58:42;14.60;57.80
19947;DHT22;10135;50.702;7.276;2024-01-25T13:00:43;14.60;57.80
19947;DHT22;10135;50.702;7.276;2024-01-25T13:02:45;14.50;57.70
19947;DHT22;10135;50.702;7.276;2024-01-25T13:04:46;14.50;57.70
19947;DHT22;10135;50.702;7.276;2024-01-25T13:06:46;14.50;57.70
19947;DHT22;10135;50.702;7.276;2024-01-25T13:08:48;14.50;57.70
19947;DHT22;10135;50.702;7.276;2024-01-25T13:10:49;14.50;57.60
19947;DHT22;10135;50.702;7.276;2024-01-25T13:12:49;14.60;57.70
19947;DHT22;10135;50.702;7.276;2024-01-25T13:14:51;14.50;57.50
19947;DHT22;10135;50.702;7.276;2024-01-25T13:16:51;14.50;57.50
19947;DHT22;10135;50.702;7.276;2024-01-25T13:18:52;14.50;57.50
19947;DHT22;10135;50.702;7.276;2024-01-25T13:20:52;14.50;57.50
19947;DHT22;10135;50.702;7.276;2024-01-25T13:22:53;14.50;57.50
19947;DHT22;10135;50.702;7.276;2024-01-25T13:24:54;14.60;57.50
19947;DHT22;10135;50.702;7.276;2024-01-25T13:26:54;14.50;57.40
19947;DHT22;10135;50.702;7.276;2024-01-25T13:28:55;14.50;57.40
19947;DHT22;10135;50.702;7.276;2024-01-25T13:30:56;14.60;57.40
19947;DHT22;10135;50.702;7.276;2024-01-25T13:32:57;14.50;57.30
19947;DHT22;10135;50.702;7.276;2024-01-25T13:34:58;14.60;57.30
19947;DHT22;10135;50.702;7.276;2024-01-25T13:36:59;14.60;57.30
19947;DHT22;10135;50.702;7.276;2024-01-25T13:39:00;14.50;57.20
19947;DHT22;10135;50.702;7.276;2024-01-25T13:41:00;14.50;57.20
19947;DHT22;10135;50.702;7.276;2024-01-25T13:43:01;14.50;57.20
19947;DHT22;10135;50.702;7.276;2024-01-25T13:45:02;14.50;57.20
19947;DHT22;10135;50.702;7.276;2024-01-25T13:47:04;14.50;57.20
19947;DHT22;10135;50.702;7.276;2024-01-25T13:49:05;14.40;57.20
19947;DHT22;10135;50.702;7.276;2024-01-25T13:51:06;14.40;57.80
19947;DHT22;10135;50.702;7.276;2024-01-25T13:53:06;14.40;57.20
19947;DHT22;10135;50.702;7.276;2024-01-25T13:55:07;14.40;57.20
19947;DHT22;10135;50.702;7.276;2024-01-25T13:57:08;14.40;57.20
19947;DHT22;10135;50.702;7.276;2024-01-25T13:59:09;14.40;57.20
19947;DHT22;10135;50.702;7.276;2024-01-25T14:01:09;14.40;57.20
19947;DHT22;10135;50.702;7.276;2024-01-25T14:03:10;14.30;57.20
19947;DHT22;10135;50.702;7.276;2024-01-25T14:05:11;14.40;57.20
19947;DHT22;10135;50.702;7.276;2024-01-25T14:07:14;14.30;57.20
19947;DHT22;10135;50.702;7.276;2024-01-25T14:09:17;14.30;57.10
19947;DHT22;10135;50.702;7.276;2024-01-25T14:11:17;14.40;57.20
19947;DHT22;10135;50.702;7.276;2024-01-25T14:13:18;14.30;57.20
19947;DHT22;10135;50.702;7.276;2024-01-25T14:15:19;14.30;57.20
19947;DHT22;10135;50.702;7.276;2024-01-25T14:17:20;14.30;57.20
19947;DHT22;10135;50.702;7.276;2024-01-25T14:19:21;14.30;57.20
19947;DHT22;10135;50.702;7.276;2024-01-25T14:21:22;14.30;57.10
19947;DHT22;10135;50.702;7.276;2024-01-25T14:23:23;14.30;57.20
19947;DHT22;10135;50.702;7.276;2024-01-25T14:25:23;14.30;57.20
19947;DHT22;10135;50.702;7.276;2024-01-25T14:27:24;14.20;57.00
19947;DHT22;10135;50.702;7.276;2024-01-25T14:29:25;14.20;57.10
19947;DHT22;10135;50.702;7.276;2024-01-25T14:31:25;14.20;57.00
19947;DHT22;10135;50.702;7.276;2024-01-25T14:33:26;14.20;57.10
19947;DHT22;10135;50.702;7.276;2024-01-25T14:35:27;14.20;57.10
19947;DHT22;10135;50.702;7.276;2024-01-25T14:37:29;14.20;57.10
19947;DHT22;10135;50.702;7.276;2024-01-25T14:39:31;14.10;57.10
19947;DHT22;10135;50.702;7.276;2024-01-25T14:41:32;14.20;57.20
19947;DHT22;10135;50.702;7.276;2024-01-25T14:43:33;14.10;57.10
19947;DHT22;10135;50.702;7.276;2024-01-25T14:45:34;14.20;57.20
19947;DHT22;10135;50.702;7.276;2024-01-25T14:47:36;14.20;57.20
19947;DHT22;10135;50.702;7.276;2024-01-25T14:49:37;14.10;57.20
19947;DHT22;10135;50.702;7.276;2024-01-25T14:51:38;14.10;57.20
19947;DHT22;10135;50.702;7.276;2024-01-25T14:53:38;14.10;57.20
19947;DHT22;10135;50.702;7.276;2024-01-25T14:55:39;14.10;57.20
19947;DHT22;10135;50.702;7.276;2024-01-25T14:57:40;14.00;57.10
19947;DHT22;10135;50.702;7.276;2024-01-25T14:59:41;14.00;57.10
19947;DHT22;10135;50.702;7.276;2024-01-25T15:01:46;14.00;57.20
19947;DHT22;10135;50.702;7.276;2024-01-25T15:03:48;14.00;57.20
19947;DHT22;10135;50.702;7.276;2024-01-25T15:05:48;14.00;57.20
19947;DHT22;10135;50.702;7.276;2024-01-25T15:07:49;14.00;57.20
19947;DHT22;10135;50.702;7.276;2024-01-25T15:09:50;14.00;57.20
19947;DHT22;10135;50.702;7.276;2024-01-25T15:11:50;14.00;57.20
19947;DHT22;10135;50.702;7.276;2024-01-25T15:13:51;14.00;57.20
19947;DHT22;10135;50.702;7.276;2024-01-25T15:15:51;14.00;57.20
19947;DHT22;10135;50.702;7.276;2024-01-25T15:17:52;14.00;57.20
19947;DHT22;10135;50.702;7.276;2024-01-25T15:19:53;14.00;57.20
19947;DHT22;10135;50.702;7.276;2024-01-25T15:21:53;13.90;57.20
19947;DHT22;10135;50.702;7.276;2024-01-25T15:23:54;13.90;57.20
19947;DHT22;10135;50.702;7.276;2024-01-25T15:25:55;13.90;57.20
19947;DHT22;10135;50.702;7.276;2024-01-25T15:27:55;13.90;57.20
19947;DHT22;10135;50.702;7.276;2024-01-25T15:29:56;13.90;57.20
19947;DHT22;10135;50.702;7.276;2024-01-25T15:31:56;13.90;57.20
19947;DHT22;10135;50.702;7.276;2024-01-25T15:33:57;13.80;57.10
19947;DHT22;10135;50.702;7.276;2024-01-25T15:35:58;13.90;57.20
19947;DHT22;10135;50.702;7.276;2024-01-25T15:37:58;13.80;57.20
19947;DHT22;10135;50.702;7.276;2024-01-25T15:40:05;13.80;57.20
19947;DHT22;10135;50.702;7.276;2024-01-25T15:42:11;13.80;57.10
19947;DHT22;10135;50.702;7.276;2024-01-25T15:44:11;13.80;57.10
19947;DHT22;10135;50.702;7.276;2024-01-25T15:46:12;13.80;57.10
19947;DHT22;10135;50.702;7.276;2024-01-25T15:48:13;13.80;57.10
19947;DHT22;10135;50.702;7.276;2024-01-25T15:50:13;13.80;57.10
19947;DHT22;10135;50.702;7.276;2024-01-25T15:52:14;13.80;57.10
19947;DHT22;10135;50.702;7.276;2024-01-25T15:54:15;13.70;57.00
19947;DHT22;10135;50.702;7.276;2024-01-25T15:56:15;13.70;57.10
19947;DHT22;10135;50.702;7.276;2024-01-25T15:58:16;13.70;57.10
19947;DHT22;10135;50.702;7.276;2024-01-25T16:00:17;13.70;57.00
19947;DHT22;10135;50.702;7.276;2024-01-25T16:02:18;13.70;57.20
19947;DHT22;10135;50.702;7.276;2024-01-25T16:04:18;13.70;57.10
19947;DHT22;10135;50.702;7.276;2024-01-25T16:06:19;13.70;57.10
19947;DHT22;10135;50.702;7.276;2024-01-25T16:08:20;13.70;57.10
19947;DHT22;10135;50.702;7.276;2024-01-25T16:10:22;13.60;57.00
19947;DHT22;10135;50.702;7.276;2024-01-25T16:12:22;13.60;57.00
19947;DHT22;10135;50.702;7.276;2024-01-25T16:14:24;13.70;57.20
19947;DHT22;10135;50.702;7.276;2024-01-25T16:16:24;13.60;57.10
19947;DHT22;10135;50.702;7.276;2024-01-25T16:18:25;13.60;57.10
19947;DHT22;10135;50.702;7.276;2024-01-25T16:20:26;13.60;57.10
19947;DHT22;10135;50.702;7.276;2024-01-25T16:22:26;13.60;57.20
19947;DHT22;10135;50.702;7.276;2024-01-25T16:24:27;13.60;57.10
19947;DHT22;10135;50.702;7.276;2024-01-25T16:26:27;13.60;57.10
19947;DHT22;10135;50.702;7.276;2024-01-25T16:28:28;13.60;57.10
19947;DHT22;10135;50.702;7.276;2024-01-25T16:30:29;13.60;57.10
19947;DHT22;10135;50.702;7.276;2024-01-25T16:32:29;13.60;57.20
19947;DHT22;10135;50.702;7.276;2024-01-25T16:34:30;13.60;57.20
19947;DHT22;10135;50.702;7.276;2024-01-25T16:36:31;13.50;57.10
19947;DHT22;10135;50.702;7.276;2024-01-25T16:38:32;13.60;57.20
19947;DHT22;10135;50.702;7.276;2024-01-25T16:40:32;13.50;57.10
19947;DHT22;10135;50.702;7.276;2024-01-25T16:42:33;13.50;57.10
19947;DHT22;10135;50.702;7.276;2024-01-25T16:44:35;13.50;57.10
19947;DHT22;10135;50.702;7.276;2024-01-25T16:46:35;13.50;57.10
19947;DHT22;10135;50.702;7.276;2024-01-25T16:48:36;13.60;57.20
19947;DHT22;10135;50.702;7.276;2024-01-25T16:50:36;13.50;57.10
19947;DHT22;10135;50.702;7.276;2024-01-25T16:52:37;13.50;57.10
19947;DHT22;10135;50.702;7.276;2024-01-25T16:54:38;13.50;57.10
19947;DHT22;10135;50.702;7.276;2024-01-25T16:56:38;13.50;57.20
19947;DHT22;10135;50.702;7.276;2024-01-25T16:58:39;13.50;57.10
19947;DHT22;10135;50.702;7.276;2024-01-25T17:00:40;13.50;57.20
19947;DHT22;10135;50.702;7.276;2024-01-25T17:02:40;13.50;57.20
19947;DHT22;10135;50.702;7.276;2024-01-25T17:04:41;13.50;57.20
19947;DHT22;10135;50.702;7.276;2024-01-25T17:06:43;13.50;57.20
19947;DHT22;10135;50.702;7.276;2024-01-25T17:08:44;13.50;57.20
19947;DHT22;10135;50.702;7.276;2024-01-25T17:10:45;13.50;57.20
19947;DHT22;10135;50.702;7.276;2024-01-25T17:12:46;13.50;57.20
19947;DHT22;10135;50.702;7.276;2024-01-25T17:14:46;13.50;57.20
19947;DHT22;10135;50.702;7.276;2024-01-25T17:16:47;13.50;57.20
19947;DHT22;10135;50.702;7.276;2024-01-25T17:18:48;13.50;57.20
19947;DHT22;10135;50.702;7.276;2024-01-25T17:20:48;13.50;57.20
19947;DHT22;10135;50.702;7.276;2024-01-25T17:22:49;13.50;57.20
19947;DHT22;10135;50.702;7.276;2024-01-25T17:24:50;13.50;57.20
19947;DHT22;10135;50.702;7.276;2024-01-25T17:26:51;13.50;57.20
19947;DHT22;10135;50.702;7.276;2024-01-25T17:28:51;13.50;57.20
19947;DHT22;10135;50.702;7.276;2024-01-25T17:30:54;13.40;57.20
19947;DHT22;10135;50.702;7.276;2024-01-25T17:32:54;13.50;57.30
19947;DHT22;10135;50.702;7.276;2024-01-25T17:34:55;13.50;57.30
19947;DHT22;10135;50.702;7.276;2024-01-25T17:36:56;13.40;57.30
19947;DHT22;10135;50.702;7.276;2024-01-25T17:38:57;13.40;57.30
19947;DHT22;10135;50.702;7.276;2024-01-25T17:40:57;13.40;57.30
19947;DHT22;10135;50.702;7.276;2024-01-25T17:42:58;13.30;57.30
19947;DHT22;10135;50.702;7.276;2024-01-25T17:44:58;13.40;57.30
19947;DHT22;10135;50.702;7.276;2024-01-25T17:46:59;13.30;57.30
19947;DHT22;10135;50.702;7.276;2024-01-25T17:49:00;13.30;57.30
19947;DHT22;10135;50.702;7.276;2024-01-25T17:51:00;13.30;57.40
19947;DHT22;10135;50.702;7.276;2024-01-25T17:53:02;13.30;57.50
19947;DHT22;10135;50.702;7.276;2024-01-25T17:55:03;13.30;57.50
19947;DHT22;10135;50.702;7.276;2024-01-25T17:57:05;13.30;57.70
19947;DHT22;10135;50.702;7.276;2024-01-25T17:59:06;13.30;57.80
19947;DHT22;10135;50.702;7.276;2024-01-25T18:01:10;13.20;57.80
19947;DHT22;10135;50.702;7.276;2024-01-25T18:03:10;13.20;57.90
19947;DHT22;10135;50.702;7.276;2024-01-25T18:05:11;13.20;58.60
19947;DHT22;10135;50.702;7.276;2024-01-25T18:07:12;13.20;58.00
19947;DHT22;10135;50.702;7.276;2024-01-25T18:09:12;13.20;58.10
19947;DHT22;10135;50.702;7.276;2024-01-25T18:11:13;13.20;58.10
19947;DHT22;10135;50.702;7.276;2024-01-25T18:13:14;13.20;58.20
19947;DHT22;10135;50.702;7.276;2024-01-25T18:15:15;13.10;58.20
19947;DHT22;10135;50.702;7.276;2024-01-25T18:17:18;13.20;58.40
19947;DHT22;10135;50.702;7.276;2024-01-25T18:19:18;13.10;58.40
19947;DHT22;10135;50.702;7.276;2024-01-25T18:21:19;13.10;58.50
19947;DHT22;10135;50.702;7.276;2024-01-25T18:23:20;13.10;58.50
19947;DHT22;10135;50.702;7.276;2024-01-25T18:25:20;13.10;58.60
19947;DHT22;10135;50.702;7.276;2024-01-25T18:27:21;13.10;58.70
19947;DHT22;10135;50.702;7.276;2024-01-25T18:29:22;13.10;58.80
19947;DHT22;10135;50.702;7.276;2024-01-25T18:31:23;13.10;59.50
19947;DHT22;10135;50.702;7.276;2024-01-25T18:33:23;13.00;58.90
19947;DHT22;10135;50.702;7.276;2024-01-25T18:35:24;13.00;59.00
19947;DHT22;10135;50.702;7.276;2024-01-25T18:37:25;13.00;59.00
19947;DHT22;10135;50.702;7.276;2024-01-25T18:39:25;13.00;59.10
19947;DHT22;10135;50.702;7.276;2024-01-25T18:41:28;13.00;59.10
19947;DHT22;10135;50.702;7.276;2024-01-25T18:43:28;13.00;59.20
19947;DHT22;10135;50.702;7.276;2024-01-25T18:45:29;12.90;59.20